createdAt,value
2022-10-27T00:00:45.394Z,99.99
2022-10-27T00:01:45.449Z,99.99
2022-10-27T00:02:45.415Z,99.99
2022-10-27T00:03:45.371Z,99.99
2022-10-27T00:04:45.368Z,99.99
2022-10-27T00:05:45.359Z,99.99
2022-10-27T00:06:45.355Z,99.99
2022-10-27T00:07:45.341Z,99.99
2022-10-27T00:08:45.340Z,99.99
2022-10-27T00:09:45.325Z,99.99
2022-10-27T00:10:45.407Z,99.99
2022-10-27T00:11:45.377Z,99.99
2022-10-27T00:12:45.305Z,99.99
2022-10-27T00:13:45.303Z,99.99
2022-10-27T00:14:45.291Z,99.99
2022-10-27T00:15:45.287Z,99.99
2022-10-27T00:16:45.271Z,99.99
2022-10-27T00:17:45.267Z,99.99
2022-10-27T00:18:45.260Z,99.99
2022-10-27T00:19:45.253Z,99.99
2022-10-27T00:20:45.248Z,99.99
2022-10-27T00:21:45.261Z,99.99
2022-10-27T00:22:45.233Z,99.99
2022-10-27T00:23:45.220Z,99.99
2022-10-27T00:24:45.215Z,99.99
2022-10-27T00:25:45.207Z,99.99
2022-10-27T00:26:45.203Z,99.99
2022-10-27T00:27:45.194Z,99.99
2022-10-27T00:28:45.199Z,99.99
2022-10-27T00:29:45.180Z,99.99
2022-10-27T00:30:45.167Z,99.99
2022-10-27T00:31:45.165Z,99.99
2022-10-27T00:32:45.156Z,99.99
2022-10-27T00:33:45.149Z,99.99
2022-10-27T00:34:45.142Z,99.99
2022-10-27T00:35:45.133Z,99.99
2022-10-27T00:36:45.127Z,99.99
2022-10-27T00:37:45.116Z,99.99
2022-10-27T00:38:45.111Z,99.99
2022-10-27T00:39:45.103Z,99.99
2022-10-27T00:40:45.096Z,99.99
2022-10-27T00:41:45.089Z,99.99
2022-10-27T00:42:45.081Z,99.99
2022-10-27T00:43:45.072Z,99.99
2022-10-27T00:44:45.060Z,99.99
2022-10-27T00:45:45.060Z,99.99
2022-10-27T00:46:45.055Z,99.99
2022-10-27T00:47:45.043Z,99.99
2022-10-27T00:48:45.035Z,99.99
2022-10-27T00:49:45.029Z,99.99
2022-10-27T00:50:45.036Z,99.99
2022-10-27T00:51:45.009Z,99.99
2022-10-27T00:52:45.006Z,99.99
2022-10-27T00:53:44.996Z,99.99
2022-10-27T00:54:45.012Z,99.99
2022-10-27T00:55:44.984Z,99.99
2022-10-27T00:56:44.975Z,99.99
2022-10-27T00:57:44.971Z,99.99
2022-10-27T00:58:44.963Z,99.99
2022-10-27T00:59:44.954Z,99.99
2022-10-27T01:00:44.997Z,99.99
2022-10-27T01:01:45.065Z,99.99
2022-10-27T01:02:44.935Z,99.99
2022-10-27T01:03:44.923Z,99.99
2022-10-27T01:04:44.915Z,99.99
2022-10-27T01:05:44.905Z,99.99
2022-10-27T01:06:44.902Z,99.99
2022-10-27T01:07:44.895Z,99.99
2022-10-27T01:08:44.895Z,99.99
2022-10-27T01:09:44.881Z,99.99
2022-10-27T01:10:44.872Z,99.99
2022-10-27T01:11:44.863Z,99.99
2022-10-27T01:12:44.857Z,99.99
2022-10-27T01:13:44.848Z,99.99
2022-10-27T01:14:44.843Z,99.99
2022-10-27T01:15:44.846Z,99.99
2022-10-27T01:16:44.828Z,99.99
2022-10-27T01:17:44.821Z,99.99
2022-10-27T01:18:44.810Z,99.99
2022-10-27T01:19:44.804Z,99.99
2022-10-27T01:20:44.797Z,99.99
2022-10-27T01:21:44.795Z,99.99
2022-10-27T01:22:44.792Z,99.99
2022-10-27T01:23:44.774Z,99.99
2022-10-27T01:24:44.767Z,99.99
2022-10-27T01:25:44.760Z,99.99
2022-10-27T01:26:44.750Z,99.99
2022-10-27T01:27:44.743Z,99.99
2022-10-27T01:28:44.741Z,99.99
2022-10-27T01:29:44.755Z,99.99
2022-10-27T01:30:44.721Z,99.99
2022-10-27T01:31:46.830Z,99.99
2022-10-27T01:32:44.702Z,99.99
2022-10-27T01:33:44.698Z,99.99
2022-10-27T01:34:44.689Z,99.99
2022-10-27T01:35:44.683Z,99.99
2022-10-27T01:36:44.677Z,99.99
2022-10-27T01:37:44.668Z,99.99
2022-10-27T01:38:44.674Z,99.99
2022-10-27T01:39:44.654Z,99.99
2022-10-27T01:40:44.645Z,99.99
2022-10-27T01:41:44.639Z,99.99
2022-10-27T01:42:44.631Z,99.99
2022-10-27T01:43:44.623Z,99.99
2022-10-27T01:44:44.619Z,99.99
2022-10-27T01:45:44.620Z,99.99
2022-10-27T01:46:44.604Z,99.99
2022-10-27T01:47:44.593Z,99.99
2022-10-27T01:48:44.582Z,99.99
2022-10-27T01:49:44.580Z,99.99
2022-10-27T01:51:00.520Z,99.99
2022-10-27T01:51:44.567Z,99.99
2022-10-27T01:52:44.577Z,99.99
2022-10-27T01:53:44.550Z,99.99
2022-10-27T01:54:44.541Z,99.99
2022-10-27T01:55:44.540Z,99.99
2022-10-27T01:56:44.524Z,99.99
2022-10-27T01:57:44.521Z,99.99
2022-10-27T01:58:44.508Z,99.99
2022-10-27T01:59:44.501Z,99.99
2022-10-27T02:00:44.534Z,99.99
2022-10-27T02:01:44.487Z,99.99
2022-10-27T02:02:44.476Z,99.99
2022-10-27T02:03:44.470Z,99.99
2022-10-27T02:04:44.474Z,99.99
2022-10-27T02:05:44.456Z,99.99
2022-10-27T02:06:44.456Z,99.99
2022-10-27T02:07:44.439Z,99.99
2022-10-27T02:08:44.432Z,99.99
2022-10-27T02:09:44.423Z,99.99
2022-10-27T02:10:44.419Z,99.99
2022-10-27T02:11:44.431Z,99.99
2022-10-27T02:12:44.401Z,99.99
2022-10-27T02:13:44.412Z,99.99
2022-10-27T02:14:44.390Z,99.99
2022-10-27T02:15:44.374Z,99.99
2022-10-27T02:16:44.372Z,99.99
2022-10-27T02:17:44.363Z,99.99
2022-10-27T02:18:44.369Z,99.99
2022-10-27T02:19:44.351Z,99.99
2022-10-27T02:20:44.341Z,99.99
2022-10-27T02:21:44.336Z,99.99
2022-10-27T02:22:46.211Z,99.99
2022-10-27T02:23:44.318Z,99.99
2022-10-27T02:24:44.311Z,99.99
2022-10-27T02:25:44.315Z,99.99
2022-10-27T02:26:44.295Z,99.99
2022-10-27T02:27:44.287Z,99.99
2022-10-27T02:28:44.280Z,99.99
2022-10-27T02:29:44.271Z,99.99
2022-10-27T02:30:44.275Z,99.99
2022-10-27T02:31:44.258Z,99.99
2022-10-27T02:32:44.270Z,99.99
2022-10-27T02:33:44.241Z,99.99
2022-10-27T02:34:44.234Z,99.99
2022-10-27T02:35:46.395Z,99.99
2022-10-27T02:36:44.214Z,99.99
2022-10-27T02:37:44.213Z,99.99
2022-10-27T02:38:44.203Z,99.99
2022-10-27T02:39:44.201Z,99.99
2022-10-27T02:40:44.189Z,99.99
2022-10-27T02:41:44.180Z,99.99
2022-10-27T02:42:44.178Z,99.99
2022-10-27T02:43:44.159Z,99.99
2022-10-27T02:44:44.157Z,99.99
2022-10-27T02:45:44.151Z,99.99
2022-10-27T02:46:45.473Z,99.99
2022-10-27T02:47:44.134Z,99.99
2022-10-27T02:48:44.126Z,99.99
2022-10-27T02:49:44.120Z,99.99
2022-10-27T02:50:44.114Z,99.99
2022-10-27T02:51:44.101Z,99.99
2022-10-27T02:52:44.095Z,99.99
2022-10-27T02:53:44.097Z,99.99
2022-10-27T02:54:44.081Z,99.99
2022-10-27T02:55:44.071Z,99.99
2022-10-27T02:56:44.064Z,99.99
2022-10-27T02:57:44.052Z,99.99
2022-10-27T02:58:44.051Z,99.99
2022-10-27T02:59:44.164Z,99.99
2022-10-27T03:00:44.081Z,99.99
2022-10-27T03:01:44.101Z,99.99
2022-10-27T03:02:44.022Z,99.99
2022-10-27T03:03:44.011Z,99.99
2022-10-27T03:04:43.997Z,99.99
2022-10-27T03:05:45.573Z,99.99
2022-10-27T03:06:43.987Z,99.99
2022-10-27T03:07:43.979Z,99.99
2022-10-27T03:08:43.973Z,99.99
2022-10-27T03:09:43.964Z,99.99
2022-10-27T03:10:43.956Z,99.99
2022-10-27T03:11:46.169Z,99.99
2022-10-27T03:12:43.939Z,99.99
2022-10-27T03:13:43.927Z,99.99
2022-10-27T03:14:43.943Z,99.99
2022-10-27T03:15:43.916Z,99.99
2022-10-27T03:16:43.907Z,99.99
2022-10-27T03:17:43.903Z,99.99
2022-10-27T03:18:43.897Z,99.99
2022-10-27T03:19:43.887Z,99.99
2022-10-27T03:20:43.874Z,99.99
2022-10-27T03:21:43.874Z,99.99
2022-10-27T03:22:43.862Z,99.99
2022-10-27T03:23:43.853Z,99.99
2022-10-27T03:24:43.846Z,99.99
2022-10-27T03:25:47.380Z,99.99
2022-10-27T03:26:43.843Z,99.99
2022-10-27T03:27:43.830Z,99.99
2022-10-27T03:28:43.824Z,99.99
2022-10-27T03:29:43.874Z,99.99
2022-10-27T03:30:43.823Z,99.99
2022-10-27T03:31:43.801Z,99.99
2022-10-27T03:32:43.784Z,99.99
2022-10-27T03:33:43.777Z,99.99
2022-10-27T03:34:43.769Z,99.99
2022-10-27T03:35:43.758Z,99.99
2022-10-27T03:36:43.810Z,99.99
2022-10-27T03:37:43.741Z,99.99
2022-10-27T03:38:43.743Z,99.99
2022-10-27T03:39:43.745Z,99.99
2022-10-27T03:40:43.719Z,99.99
2022-10-27T03:41:43.729Z,99.99
2022-10-27T03:42:43.704Z,99.99
2022-10-27T03:43:43.704Z,99.99
2022-10-27T03:44:43.687Z,99.99
2022-10-27T03:45:43.681Z,99.99
2022-10-27T03:46:43.672Z,99.99
2022-10-27T03:47:43.658Z,99.99
2022-10-27T03:48:43.664Z,99.99
2022-10-27T03:49:43.647Z,99.99
2022-10-27T03:50:43.640Z,99.99
2022-10-27T03:51:43.632Z,99.99
2022-10-27T03:52:43.623Z,99.99
2022-10-27T03:53:43.616Z,99.99
2022-10-27T03:54:43.613Z,99.99
2022-10-27T03:55:43.600Z,99.99
2022-10-27T03:56:43.589Z,99.99
2022-10-27T03:57:43.584Z,99.99
2022-10-27T03:58:43.579Z,99.99
2022-10-27T03:59:43.564Z,99.99
2022-10-27T04:00:43.608Z,99.99
2022-10-27T04:01:43.659Z,99.99
2022-10-27T04:02:43.543Z,99.99
2022-10-27T04:03:43.534Z,99.99
2022-10-27T04:04:43.528Z,99.99
2022-10-27T04:05:43.520Z,99.99
2022-10-27T04:06:43.506Z,99.99
2022-10-27T04:07:47.133Z,99.99
2022-10-27T04:08:43.494Z,99.99
2022-10-27T04:09:43.487Z,99.99
2022-10-27T04:10:43.484Z,99.99
2022-10-27T04:11:43.472Z,99.99
2022-10-27T04:12:43.466Z,99.99
2022-10-27T04:13:43.453Z,99.99
2022-10-27T04:14:43.447Z,99.99
2022-10-27T04:15:43.458Z,99.99
2022-10-27T04:16:43.431Z,99.99
2022-10-27T04:17:43.431Z,99.99
2022-10-27T04:18:43.497Z,99.99
2022-10-27T04:19:43.414Z,99.99
2022-10-27T04:20:43.396Z,99.99
2022-10-27T04:21:43.391Z,99.99
2022-10-27T04:22:43.386Z,99.99
2022-10-27T04:23:43.370Z,99.99
2022-10-27T04:24:43.367Z,99.99
2022-10-27T04:25:43.357Z,99.99
2022-10-27T04:26:43.350Z,99.99
2022-10-27T04:27:43.341Z,99.99
2022-10-27T04:28:43.335Z,99.99
2022-10-27T04:29:43.345Z,99.99
2022-10-27T04:30:43.318Z,99.99
2022-10-27T04:31:43.310Z,99.99
2022-10-27T04:32:43.306Z,99.99
2022-10-27T04:33:43.291Z,99.99
2022-10-27T04:34:43.281Z,99.99
2022-10-27T04:35:43.275Z,99.99
2022-10-27T04:36:43.269Z,99.99
2022-10-27T04:37:43.263Z,99.99
2022-10-27T04:38:43.253Z,99.99
2022-10-27T04:39:43.247Z,99.99
2022-10-27T04:40:43.233Z,99.99
2022-10-27T04:41:43.246Z,99.99
2022-10-27T04:42:43.222Z,99.99
2022-10-27T04:43:43.257Z,99.99
2022-10-27T04:44:43.209Z,99.99
2022-10-27T04:45:43.197Z,99.99
2022-10-27T04:46:43.195Z,99.99
2022-10-27T04:47:43.179Z,99.99
2022-10-27T04:48:43.172Z,99.99
2022-10-27T04:49:43.178Z,99.99
2022-10-27T04:50:43.155Z,99.99
2022-10-27T04:51:43.147Z,99.99
2022-10-27T04:52:44.466Z,99.99
2022-10-27T04:53:43.127Z,99.99
2022-10-27T04:54:43.121Z,99.99
2022-10-27T04:55:43.112Z,99.99
2022-10-27T04:56:43.114Z,99.99
2022-10-27T04:57:43.098Z,99.99
2022-10-27T04:58:43.089Z,99.99
2022-10-27T04:59:43.087Z,99.99
2022-10-27T05:00:43.067Z,99.99
2022-10-27T05:01:43.110Z,99.99
2022-10-27T05:02:43.102Z,99.99
2022-10-27T05:03:43.048Z,99.99
2022-10-27T05:04:43.041Z,99.99
2022-10-27T05:05:43.034Z,99.99
2022-10-27T05:06:43.030Z,99.99
2022-10-27T05:07:43.013Z,99.99
2022-10-27T05:08:43.066Z,99.99
2022-10-27T05:09:43.008Z,99.99
2022-10-27T05:10:42.993Z,99.99
2022-10-27T05:11:42.989Z,99.99
2022-10-27T05:12:42.976Z,99.99
2022-10-27T05:13:42.974Z,99.99
2022-10-27T05:14:42.956Z,99.99
2022-10-27T05:15:42.950Z,99.99
2022-10-27T05:16:42.957Z,99.99
2022-10-27T05:17:42.935Z,99.99
2022-10-27T05:18:42.924Z,99.99
2022-10-27T05:19:42.919Z,99.99
2022-10-27T05:20:42.910Z,99.99
2022-10-27T05:21:42.901Z,99.99
2022-10-27T05:22:42.896Z,99.99
2022-10-27T05:23:45.322Z,99.99
2022-10-27T05:24:42.877Z,99.99
2022-10-27T05:26:42.861Z,99.99
2022-10-27T05:27:42.850Z,99.99
2022-10-27T05:28:42.844Z,99.99
2022-10-27T05:29:42.842Z,99.99
2022-10-27T05:30:42.828Z,99.99
2022-10-27T05:31:42.822Z,99.99
2022-10-27T05:32:44.915Z,99.99
2022-10-27T05:33:42.818Z,99.99
2022-10-27T05:34:42.793Z,99.99
2022-10-27T05:35:42.788Z,99.99
2022-10-27T05:36:43.902Z,99.99
2022-10-27T05:37:42.772Z,99.99
2022-10-27T05:38:42.770Z,99.99
2022-10-27T05:39:42.752Z,99.99
2022-10-27T05:40:42.754Z,99.99
2022-10-27T05:41:42.738Z,99.99
2022-10-27T05:42:42.733Z,99.99
2022-10-27T05:43:42.824Z,99.99
2022-10-27T05:44:42.713Z,99.99
2022-10-27T05:45:42.707Z,99.99
2022-10-27T05:46:42.700Z,99.99
2022-10-27T05:47:42.684Z,99.99
2022-10-27T05:48:42.685Z,99.99
2022-10-27T05:49:42.669Z,99.99
2022-10-27T05:51:42.659Z,99.99
2022-10-27T05:52:42.650Z,99.99
2022-10-27T05:53:42.643Z,99.99
2022-10-27T05:54:42.629Z,99.99
2022-10-27T05:55:42.626Z,99.99
2022-10-27T05:56:42.614Z,99.99
2022-10-27T05:57:42.608Z,99.99
2022-10-27T05:58:42.603Z,99.99
2022-10-27T05:59:42.593Z,99.99
2022-10-27T06:00:42.596Z,99.99
2022-10-27T06:01:42.705Z,99.99
2022-10-27T06:02:42.568Z,99.99
2022-10-27T06:03:42.563Z,99.99
2022-10-27T06:04:42.564Z,99.99
2022-10-27T06:05:42.550Z,99.99
2022-10-27T06:06:42.537Z,99.99
2022-10-27T06:07:42.520Z,99.99
2022-10-27T06:08:42.516Z,99.99
2022-10-27T06:09:42.512Z,99.99
2022-10-27T06:10:42.508Z,99.99
2022-10-27T06:11:42.493Z,99.99
2022-10-27T06:12:42.487Z,99.99
2022-10-27T06:13:42.490Z,99.99
2022-10-27T06:14:42.496Z,99.99
2022-10-27T06:16:42.454Z,99.99
2022-10-27T06:17:42.448Z,99.99
2022-10-27T06:18:42.464Z,99.99
2022-10-27T06:19:42.430Z,99.99
2022-10-27T06:20:42.421Z,99.99
2022-10-27T06:21:42.412Z,99.99
2022-10-27T06:22:42.406Z,99.99
2022-10-27T06:23:42.397Z,99.99
2022-10-27T06:24:42.389Z,99.99
2022-10-27T06:25:42.383Z,99.99
2022-10-27T06:26:42.374Z,99.99
2022-10-27T06:27:42.361Z,99.99
2022-10-27T06:28:42.352Z,99.99
2022-10-27T06:29:42.349Z,99.99
2022-10-27T06:30:42.350Z,99.99
2022-10-27T06:31:42.333Z,99.99
2022-10-27T06:32:42.324Z,99.99
2022-10-27T06:33:42.317Z,99.99
2022-10-27T06:34:42.314Z,99.99
2022-10-27T06:35:42.297Z,99.99
2022-10-27T06:36:42.293Z,99.99
2022-10-27T06:37:42.287Z,99.99
2022-10-27T06:38:44.421Z,99.99
2022-10-27T06:39:42.274Z,99.99
2022-10-27T06:40:42.264Z,99.99
2022-10-27T06:41:42.352Z,99.99
2022-10-27T06:42:55.312Z,99.99
2022-10-27T06:43:42.239Z,99.99
2022-10-27T06:44:42.232Z,99.99
2022-10-27T06:45:42.222Z,99.99
2022-10-27T06:46:42.221Z,99.99
2022-10-27T06:47:42.209Z,99.99
2022-10-27T06:48:42.205Z,99.99
2022-10-27T06:49:42.190Z,99.99
2022-10-27T06:50:42.194Z,99.99
2022-10-27T06:51:42.168Z,99.99
2022-10-27T06:52:42.169Z,99.99
2022-10-27T06:53:42.168Z,99.99
2022-10-27T06:54:42.154Z,99.99
2022-10-27T06:55:42.145Z,99.99
2022-10-27T06:56:42.137Z,99.99
2022-10-27T06:57:42.136Z,99.99
2022-10-27T06:58:42.129Z,99.99
2022-10-27T06:59:42.113Z,99.99
2022-10-27T07:00:42.111Z,99.99
2022-10-27T07:01:42.158Z,99.99
2022-10-27T07:02:42.098Z,99.99
2022-10-27T07:03:42.081Z,99.99
2022-10-27T07:04:42.076Z,99.99
2022-10-27T07:05:42.077Z,99.99
2022-10-27T07:06:42.063Z,99.99
2022-10-27T07:07:42.070Z,99.99
2022-10-27T07:08:42.132Z,99.99
2022-10-27T07:09:42.042Z,99.99
2022-10-27T07:10:42.033Z,99.99
2022-10-27T07:11:42.043Z,99.99
2022-10-27T07:12:42.018Z,99.99
2022-10-27T07:13:42.010Z,99.99
2022-10-27T07:14:42.009Z,99.99
2022-10-27T07:15:41.998Z,99.99
2022-10-27T07:16:41.994Z,99.99
2022-10-27T07:17:41.977Z,99.99
2022-10-27T07:18:41.976Z,99.99
2022-10-27T07:19:41.970Z,99.99
2022-10-27T07:20:41.960Z,99.99
2022-10-27T07:21:41.956Z,99.99
2022-10-27T07:22:41.946Z,99.99
2022-10-27T07:23:41.941Z,99.99
2022-10-27T07:24:41.927Z,99.99
2022-10-27T07:25:41.971Z,99.99
2022-10-27T07:26:41.912Z,99.99
2022-10-27T07:27:41.910Z,99.99
2022-10-27T07:28:41.902Z,99.99
2022-10-27T07:29:41.896Z,99.99
2022-10-27T07:30:41.889Z,99.99
2022-10-27T07:31:41.881Z,99.99
2022-10-27T07:32:41.875Z,99.99
2022-10-27T07:33:41.869Z,99.99
2022-10-27T07:34:41.871Z,99.99
2022-10-27T07:35:41.854Z,99.99
2022-10-27T07:36:41.865Z,99.99
2022-10-27T07:37:41.840Z,99.99
2022-10-27T07:38:41.860Z,99.99
2022-10-27T07:39:41.823Z,99.99
2022-10-27T07:40:41.819Z,99.99
2022-10-27T07:41:41.818Z,99.99
2022-10-27T07:42:41.808Z,99.99
2022-10-27T07:43:41.803Z,99.99
2022-10-27T07:44:41.796Z,99.99
2022-10-27T07:45:41.790Z,99.99
2022-10-27T07:46:41.819Z,99.99
2022-10-27T07:47:41.774Z,99.99
2022-10-27T07:48:41.763Z,99.99
2022-10-27T07:49:41.777Z,99.99
2022-10-27T07:50:41.795Z,99.99
2022-10-27T07:51:41.747Z,99.99
2022-10-27T07:52:41.740Z,99.99
2022-10-27T07:53:41.735Z,99.99
2022-10-27T07:54:41.726Z,99.99
2022-10-27T07:55:41.721Z,99.99
2022-10-27T07:56:41.745Z,99.99
2022-10-27T07:57:41.708Z,99.99
2022-10-27T07:58:41.703Z,99.99
2022-10-27T07:59:41.696Z,99.99
2022-10-27T08:00:41.689Z,99.99
2022-10-27T08:01:41.812Z,99.99
2022-10-27T08:02:41.676Z,99.99
2022-10-27T08:03:42.340Z,99.99
2022-10-27T08:04:41.672Z,99.99
2022-10-27T08:05:41.657Z,99.99
2022-10-27T08:06:41.666Z,99.99
2022-10-27T08:07:41.649Z,99.83
2022-10-27T08:08:41.642Z,99.93
2022-10-27T08:09:41.630Z,99.99
2022-10-27T08:10:41.626Z,99.22
2022-10-27T08:11:41.617Z,99.42
2022-10-27T08:12:41.623Z,99.32
2022-10-27T08:13:41.610Z,99.52
2022-10-27T08:14:41.607Z,99.17
2022-10-27T08:15:41.679Z,99.07
2022-10-27T08:16:41.653Z,98.97
2022-10-27T08:17:41.582Z,98.36
2022-10-27T08:18:41.581Z,97.75
2022-10-27T08:19:41.570Z,97.55
2022-10-27T08:20:41.574Z,97.85
2022-10-27T08:21:41.562Z,97.85
2022-10-27T08:22:41.570Z,97.75
2022-10-27T08:23:41.551Z,97.75
2022-10-27T08:24:41.547Z,97.04
2022-10-27T08:25:41.536Z,96.83
2022-10-27T08:26:41.532Z,97.24
2022-10-27T08:27:41.523Z,97.55
2022-10-27T08:28:41.519Z,97.40
2022-10-27T08:29:41.515Z,96.99
2022-10-27T08:30:45.837Z,97.30
2022-10-27T08:31:41.503Z,97.30
2022-10-27T08:32:41.510Z,96.99
2022-10-27T08:33:41.488Z,96.89
2022-10-27T08:34:41.485Z,97.40
2022-10-27T08:35:41.480Z,97.45
2022-10-27T08:36:41.473Z,96.84
2022-10-27T08:37:41.469Z,97.05
2022-10-27T08:38:41.472Z,97.25
2022-10-27T08:39:41.456Z,97.25
2022-10-27T08:40:41.528Z,96.64
2022-10-27T08:41:41.442Z,96.30
2022-10-27T08:42:41.442Z,95.99
2022-10-27T08:43:41.446Z,95.89
2022-10-27T08:44:41.446Z,95.58
2022-10-27T08:45:41.434Z,96.09
2022-10-27T08:46:41.424Z,95.43
2022-10-27T08:47:41.411Z,95.43
2022-10-27T08:48:41.410Z,95.43
2022-10-27T08:49:43.465Z,95.54
2022-10-27T08:50:41.397Z,95.54
2022-10-27T08:51:41.392Z,95.29
2022-10-27T08:52:41.391Z,95.23
2022-10-27T08:53:41.382Z,95.39
2022-10-27T08:54:41.379Z,95.50
2022-10-27T08:55:41.368Z,94.48
2022-10-27T08:56:41.364Z,94.34
2022-10-27T08:57:41.353Z,94.34
2022-10-27T08:58:41.356Z,94.03
2022-10-27T08:59:44.188Z,93.77
2022-10-27T09:00:41.345Z,94.13
2022-10-27T09:01:41.473Z,94.13
2022-10-27T09:02:41.438Z,93.93
2022-10-27T09:03:41.328Z,93.78
2022-10-27T09:04:41.322Z,93.27
2022-10-27T09:05:41.316Z,93.78
2022-10-27T09:06:41.309Z,93.38
2022-10-27T09:07:41.306Z,93.48
2022-10-27T09:08:41.303Z,93.68
2022-10-27T09:09:41.385Z,93.18
2022-10-27T09:10:41.295Z,93.03
2022-10-27T09:11:41.293Z,93.13
2022-10-27T09:12:41.281Z,92.52
2022-10-27T09:13:41.280Z,92.32
2022-10-27T09:14:44.115Z,91.51
2022-10-27T09:15:41.270Z,91.20
2022-10-27T09:16:41.260Z,91.47
2022-10-27T09:17:41.266Z,91.06
2022-10-27T09:18:41.255Z,90.76
2022-10-27T09:19:41.246Z,90.56
2022-10-27T09:20:41.251Z,91.16
2022-10-27T09:21:42.130Z,90.45
2022-10-27T09:22:41.242Z,90.72
2022-10-27T09:23:41.223Z,90.66
2022-10-27T09:24:41.226Z,90.62
2022-10-27T09:25:41.253Z,90.62
2022-10-27T09:26:41.222Z,91.12
2022-10-27T09:27:41.210Z,89.91
2022-10-27T09:28:41.207Z,90.11
2022-10-27T09:29:41.198Z,89.70
2022-10-27T09:30:41.194Z,89.81
2022-10-27T09:31:41.182Z,89.50
2022-10-27T09:32:41.182Z,89.50
2022-10-27T09:33:41.179Z,89.36
2022-10-27T09:34:41.176Z,89.40
2022-10-27T09:35:41.170Z,89.56
2022-10-27T09:36:41.163Z,88.75
2022-10-27T09:37:41.164Z,87.95
2022-10-27T09:38:41.159Z,87.81
2022-10-27T09:39:41.156Z,87.19
2022-10-27T09:40:41.143Z,87.40
2022-10-27T09:41:41.141Z,87.50
2022-10-27T09:42:41.134Z,87.90
2022-10-27T09:43:41.138Z,87.81
2022-10-27T09:44:41.131Z,87.30
2022-10-27T09:45:41.124Z,86.49
2022-10-27T09:46:41.124Z,86.45
2022-10-27T09:47:41.117Z,86.55
2022-10-27T09:48:41.114Z,86.59
2022-10-27T09:49:41.101Z,86.55
2022-10-27T09:50:41.108Z,85.64
2022-10-27T09:51:41.098Z,86.25
2022-10-27T09:52:41.093Z,85.44
2022-10-27T09:53:41.090Z,85.24
2022-10-27T09:54:41.094Z,85.50
2022-10-27T09:55:41.099Z,85.30
2022-10-27T09:56:41.080Z,84.49
2022-10-27T09:57:41.078Z,85.60
2022-10-27T09:58:41.076Z,85.80
2022-10-27T09:59:41.063Z,85.96
2022-10-27T10:00:41.069Z,85.36
2022-10-27T10:01:41.127Z,85.86
2022-10-27T10:02:45.666Z,85.16
2022-10-27T10:03:41.051Z,83.74
2022-10-27T10:04:41.053Z,84.31
2022-10-27T10:05:41.038Z,83.91
2022-10-27T10:06:41.038Z,84.31
2022-10-27T10:07:41.025Z,84.61
2022-10-27T10:08:41.026Z,84.51
2022-10-27T10:09:41.032Z,84.71
2022-10-27T10:10:41.016Z,83.50
2022-10-27T10:11:41.030Z,83.20
2022-10-27T10:12:41.013Z,83.16
2022-10-27T10:13:41.012Z,82.86
2022-10-27T10:14:41.022Z,83.26
2022-10-27T10:15:40.999Z,83.36
2022-10-27T10:16:41.001Z,83.16
2022-10-27T10:17:40.989Z,82.25
2022-10-27T10:18:41.027Z,82.15
2022-10-27T10:19:40.984Z,82.76
2022-10-27T10:21:40.977Z,81.81
2022-10-27T10:22:43.131Z,81.91
2022-10-27T10:23:40.970Z,81.81
2022-10-27T10:24:40.968Z,81.91
2022-10-27T10:25:40.964Z,81.91
2022-10-27T10:26:40.955Z,82.11
2022-10-27T10:27:40.950Z,82.82
2022-10-27T10:28:40.953Z,82.98
2022-10-27T10:29:40.949Z,82.88
2022-10-27T10:30:40.952Z,81.07
2022-10-27T10:31:40.941Z,80.77
2022-10-27T10:32:40.947Z,80.90
2022-10-27T10:33:40.935Z,81.17
2022-10-27T10:34:40.933Z,80.97
2022-10-27T10:35:40.950Z,81.03
2022-10-27T10:36:40.921Z,80.52
2022-10-27T10:37:40.920Z,80.66
2022-10-27T10:38:40.916Z,80.97
2022-10-27T10:39:40.925Z,80.97
2022-10-27T10:40:40.921Z,80.66
2022-10-27T10:41:40.908Z,80.73
2022-10-27T10:42:40.910Z,80.22
2022-10-27T10:43:40.904Z,80.22
2022-10-27T10:44:40.901Z,80.32
2022-10-27T10:45:40.937Z,81.23
2022-10-27T10:46:40.890Z,80.49
2022-10-27T10:47:40.887Z,80.99
2022-10-27T10:48:40.889Z,80.43
2022-10-27T10:49:40.879Z,80.89
2022-10-27T10:50:40.890Z,81.84
2022-10-27T10:51:40.880Z,81.39
2022-10-27T10:52:40.880Z,80.93
2022-10-27T10:53:40.868Z,81.13
2022-10-27T10:54:40.868Z,81.09
2022-10-27T10:55:40.870Z,80.79
2022-10-27T10:56:40.854Z,79.48
2022-10-27T10:57:40.854Z,79.88
2022-10-27T10:58:40.853Z,80.02
2022-10-27T10:59:40.848Z,80.29
2022-10-27T11:00:40.895Z,79.38
2022-10-27T11:01:41.027Z,79.79
2022-10-27T11:02:40.843Z,79.32
2022-10-27T11:03:40.836Z,79.88
2022-10-27T11:04:40.833Z,79.79
2022-10-27T11:05:40.833Z,79.58
2022-10-27T11:06:40.831Z,79.54
2022-10-27T11:07:40.823Z,79.24
2022-10-27T11:08:42.338Z,78.58
2022-10-27T11:09:40.817Z,79.04
2022-10-27T11:10:40.832Z,78.94
2022-10-27T11:11:40.811Z,79.14
2022-10-27T11:12:40.820Z,79.35
2022-10-27T11:13:40.811Z,78.84
2022-10-27T11:14:40.803Z,79.10
2022-10-27T11:15:40.814Z,78.80
2022-10-27T11:16:40.792Z,79.00
2022-10-27T11:17:40.791Z,78.60
2022-10-27T11:18:40.791Z,78.50
2022-10-27T11:19:40.788Z,77.86
2022-10-27T11:20:40.793Z,77.06
2022-10-27T11:21:40.806Z,78.36
2022-10-27T11:22:40.818Z,78.10
2022-10-27T11:23:40.777Z,77.56
2022-10-27T11:24:40.773Z,77.36
2022-10-27T11:25:40.772Z,77.76
2022-10-27T11:26:40.765Z,77.16
2022-10-27T11:27:40.761Z,76.96
2022-10-27T11:28:40.761Z,77.46
2022-10-27T11:29:40.756Z,77.56
2022-10-27T11:30:40.761Z,77.26
2022-10-27T11:31:40.751Z,75.75
2022-10-27T11:32:40.750Z,75.85
2022-10-27T11:33:40.754Z,75.95
2022-10-27T11:34:40.745Z,75.55
2022-10-27T11:35:40.742Z,74.85
2022-10-27T11:36:40.745Z,75.75
2022-10-27T11:37:40.731Z,75.75
2022-10-27T11:38:40.734Z,76.15
2022-10-27T11:39:40.729Z,75.75
2022-10-27T11:40:40.728Z,76.15
2022-10-27T11:41:40.732Z,76.35
2022-10-27T11:42:40.723Z,75.45
2022-10-27T11:43:43.570Z,75.55
2022-10-27T11:44:40.716Z,73.81
2022-10-27T11:45:40.714Z,74.44
2022-10-27T11:46:40.769Z,74.35
2022-10-27T11:47:40.709Z,74.21
2022-10-27T11:48:40.703Z,73.91
2022-10-27T11:49:40.703Z,73.61
2022-10-27T11:50:40.701Z,74.31
2022-10-27T11:51:40.700Z,73.81
2022-10-27T11:52:40.697Z,73.81
2022-10-27T11:53:40.695Z,74.51
2022-10-27T11:54:40.702Z,74.41
2022-10-27T11:55:40.689Z,75.71
2022-10-27T11:56:40.685Z,74.91
2022-10-27T11:57:40.690Z,74.15
2022-10-27T11:58:40.676Z,73.94
2022-10-27T11:59:40.678Z,73.84
2022-10-27T12:00:40.676Z,73.84
2022-10-27T12:01:40.745Z,74.85
2022-10-27T12:02:40.704Z,75.75
2022-10-27T12:03:42.420Z,75.15
2022-10-27T12:04:40.665Z,75.85
2022-10-27T12:05:40.675Z,74.85
2022-10-27T12:06:40.662Z,74.04
2022-10-27T12:07:40.655Z,73.44
2022-10-27T12:08:40.662Z,74.04
2022-10-27T12:09:40.649Z,74.35
2022-10-27T12:10:40.749Z,74.41
2022-10-27T12:11:40.679Z,74.21
2022-10-27T12:12:40.650Z,74.31
2022-10-27T12:13:40.695Z,74.07
2022-10-27T12:14:40.639Z,74.51
2022-10-27T12:15:40.643Z,73.81
2022-10-27T12:16:40.635Z,74.77
2022-10-27T12:17:40.634Z,73.77
2022-10-27T12:18:40.637Z,73.07
2022-10-27T12:19:40.640Z,73.77
2022-10-27T12:20:40.621Z,74.27
2022-10-27T12:21:40.624Z,74.18
2022-10-27T12:22:40.647Z,73.27
2022-10-27T12:23:40.618Z,72.77
2022-10-27T12:24:40.615Z,73.27
2022-10-27T12:25:40.613Z,73.47
2022-10-27T12:26:40.616Z,73.37
2022-10-27T12:27:40.607Z,72.77
2022-10-27T12:28:40.606Z,71.86
2022-10-27T12:29:40.606Z,73.07
2022-10-27T12:30:40.598Z,73.07
2022-10-27T12:31:40.596Z,73.57
2022-10-27T12:32:40.597Z,73.67
2022-10-27T12:33:40.593Z,73.30
2022-10-27T12:34:40.602Z,73.97
2022-10-27T12:35:40.589Z,73.71
2022-10-27T12:36:40.586Z,71.90
2022-10-27T12:37:40.593Z,72.37
2022-10-27T12:38:40.581Z,72.80
2022-10-27T12:39:40.578Z,73.21
2022-10-27T12:40:40.582Z,72.90
2022-10-27T12:41:40.567Z,73.17
2022-10-27T12:42:40.579Z,73.30
2022-10-27T12:43:40.570Z,73.30
2022-10-27T12:44:40.562Z,73.61
2022-10-27T12:45:40.569Z,73.50
2022-10-27T12:46:40.561Z,73.50
2022-10-27T12:47:40.558Z,74.37
2022-10-27T12:48:40.562Z,73.81
2022-10-27T12:49:40.553Z,73.67
2022-10-27T12:50:40.552Z,73.77
2022-10-27T12:51:40.542Z,73.91
2022-10-27T12:52:40.541Z,73.91
2022-10-27T12:53:40.542Z,73.97
2022-10-27T12:54:40.617Z,73.81
2022-10-27T12:55:40.544Z,72.80
2022-10-27T12:56:40.543Z,73.21